DXXX

Lomé-Tokoin Airport

Lomé, Togo
METAR DXXX 181500Z 21013KT 170V230 9999 SCT014 FEW020CB 30/25 Q1009 TEMPO TS
Observed Flight Rules
Oct-18 @ 15:00 UTC (56 minutes ago) Visual Flight Rules
Wind Visibility Clouds
210° at 13 knots 10,000+ meters
  • Scattered at 1,400' AGL
  • Few at 2,000' AGL
Temperatures Readings
Current 30°C / 86°F
Dewpoint 25°C / 77°F
Humidity 75%
Altimeter 29.79" Hg
Pressure 1009 hPa
Elevation 25
METAR DXXX 181500Z 21013KT 170V230 9999 SCT014 FEW020CB 30/25 Q1009 TEMPO TS
Observed Flight Rules
Oct-18 @ 15:00 UTC
(56 minutes ago)
VFR
Wind Visibility
210° at 13 knots 10,000+ meters
Clouds
  • Scattered at 1,400' AGL
  • Few at 2,000' AGL
Temperature Dewpoint
30°C / 86°F 25°C / 77°F
Humidity Altimeter Pressure
75% 29.79" Hg 1009 hPa